sensor_id;sensor_type;location;lat;lon;timestamp;temperature;humidity
11704;DHT22;5908;51.354;7.458;2024-03-02T00:00:14;9.30;95.10
11704;DHT22;5908;51.354;7.458;2024-03-02T00:02:40;9.30;94.90
11704;DHT22;5908;51.354;7.458;2024-03-02T00:05:07;9.30;94.90
11704;DHT22;5908;51.354;7.458;2024-03-02T00:07:34;9.20;94.90
11704;DHT22;5908;51.354;7.458;2024-03-02T00:10:02;9.20;95.00
11704;DHT22;5908;51.354;7.458;2024-03-02T00:12:31;9.10;95.00
11704;DHT22;5908;51.354;7.458;2024-03-02T00:14:57;9.20;95.30
11704;DHT22;5908;51.354;7.458;2024-03-02T00:17:27;9.20;95.10
11704;DHT22;5908;51.354;7.458;2024-03-02T00:19:55;9.20;95.00
11704;DHT22;5908;51.354;7.458;2024-03-02T00:22:22;9.20;94.90
11704;DHT22;5908;51.354;7.458;2024-03-02T00:24:48;9.20;94.90
11704;DHT22;5908;51.354;7.458;2024-03-02T00:27:16;9.20;94.90
11704;DHT22;5908;51.354;7.458;2024-03-02T00:29:44;9.20;95.00
11704;DHT22;5908;51.354;7.458;2024-03-02T00:32:11;9.20;95.20
11704;DHT22;5908;51.354;7.458;2024-03-02T00:34:38;9.20;94.80
11704;DHT22;5908;51.354;7.458;2024-03-02T00:37:05;9.20;94.90
11704;DHT22;5908;51.354;7.458;2024-03-02T00:39:32;9.20;94.80
11704;DHT22;5908;51.354;7.458;2024-03-02T00:41:59;9.20;94.70
11704;DHT22;5908;51.354;7.458;2024-03-02T00:44:27;9.20;95.00
11704;DHT22;5908;51.354;7.458;2024-03-02T00:46:56;9.20;94.90
11704;DHT22;5908;51.354;7.458;2024-03-02T00:49:23;9.10;95.00
11704;DHT22;5908;51.354;7.458;2024-03-02T00:51:50;9.00;95.10
11704;DHT22;5908;51.354;7.458;2024-03-02T00:54:18;9.00;95.10
11704;DHT22;5908;51.354;7.458;2024-03-02T00:56:45;9.10;95.00
11704;DHT22;5908;51.354;7.458;2024-03-02T00:59:13;9.10;95.00
11704;DHT22;5908;51.354;7.458;2024-03-02T01:01:41;9.10;94.90
11704;DHT22;5908;51.354;7.458;2024-03-02T01:04:08;9.10;95.00
11704;DHT22;5908;51.354;7.458;2024-03-02T01:06:35;9.10;94.90
11704;DHT22;5908;51.354;7.458;2024-03-02T01:09:02;9.10;94.90
11704;DHT22;5908;51.354;7.458;2024-03-02T01:11:28;9.20;94.80
11704;DHT22;5908;51.354;7.458;2024-03-02T01:13:55;9.10;94.90
11704;DHT22;5908;51.354;7.458;2024-03-02T01:16:22;9.20;94.80
11704;DHT22;5908;51.354;7.458;2024-03-02T01:18:50;9.10;94.70
11704;DHT22;5908;51.354;7.458;2024-03-02T01:21:16;9.20;94.70
11704;DHT22;5908;51.354;7.458;2024-03-02T01:23:43;9.20;94.60
11704;DHT22;5908;51.354;7.458;2024-03-02T01:26:09;9.10;94.60
11704;DHT22;5908;51.354;7.458;2024-03-02T01:28:36;9.20;94.70
11704;DHT22;5908;51.354;7.458;2024-03-02T01:31:03;9.20;94.60
11704;DHT22;5908;51.354;7.458;2024-03-02T01:33:29;9.20;94.60
11704;DHT22;5908;51.354;7.458;2024-03-02T01:35:57;9.10;94.50
11704;DHT22;5908;51.354;7.458;2024-03-02T01:38:24;9.10;94.50
11704;DHT22;5908;51.354;7.458;2024-03-02T01:40:51;9.10;94.50
11704;DHT22;5908;51.354;7.458;2024-03-02T01:43:18;9.10;94.70
11704;DHT22;5908;51.354;7.458;2024-03-02T01:45:44;9.10;94.60
11704;DHT22;5908;51.354;7.458;2024-03-02T01:48:11;9.10;94.60
11704;DHT22;5908;51.354;7.458;2024-03-02T01:50:37;9.10;94.50
11704;DHT22;5908;51.354;7.458;2024-03-02T01:53:05;9.10;94.40
11704;DHT22;5908;51.354;7.458;2024-03-02T01:55:33;9.00;94.50
11704;DHT22;5908;51.354;7.458;2024-03-02T01:58:00;9.10;94.60
11704;DHT22;5908;51.354;7.458;2024-03-02T02:00:26;9.10;94.50
11704;DHT22;5908;51.354;7.458;2024-03-02T02:02:54;9.10;94.30
11704;DHT22;5908;51.354;7.458;2024-03-02T02:05:21;9.10;94.30
11704;DHT22;5908;51.354;7.458;2024-03-02T02:07:48;9.00;94.30
11704;DHT22;5908;51.354;7.458;2024-03-02T02:10:15;9.10;94.30
11704;DHT22;5908;51.354;7.458;2024-03-02T02:12:42;9.10;94.30
11704;DHT22;5908;51.354;7.458;2024-03-02T02:15:24;9.10;94.20
11704;DHT22;5908;51.354;7.458;2024-03-02T02:17:51;9.10;94.30
11704;DHT22;5908;51.354;7.458;2024-03-02T02:20:18;9.00;94.20
11704;DHT22;5908;51.354;7.458;2024-03-02T02:22:56;9.10;94.20
11704;DHT22;5908;51.354;7.458;2024-03-02T02:25:22;9.10;94.20
11704;DHT22;5908;51.354;7.458;2024-03-02T02:27:49;9.10;94.20
11704;DHT22;5908;51.354;7.458;2024-03-02T02:30:18;9.00;94.10
11704;DHT22;5908;51.354;7.458;2024-03-02T02:32:44;9.10;94.10
11704;DHT22;5908;51.354;7.458;2024-03-02T02:35:11;9.00;94.20
11704;DHT22;5908;51.354;7.458;2024-03-02T02:37:38;9.10;94.20
11704;DHT22;5908;51.354;7.458;2024-03-02T02:40:06;9.10;94.10
11704;DHT22;5908;51.354;7.458;2024-03-02T02:42:34;9.10;94.10
11704;DHT22;5908;51.354;7.458;2024-03-02T02:45:00;9.20;93.90
11704;DHT22;5908;51.354;7.458;2024-03-02T02:47:27;9.10;93.90
11704;DHT22;5908;51.354;7.458;2024-03-02T02:49:55;9.10;93.80
11704;DHT22;5908;51.354;7.458;2024-03-02T02:52:22;9.10;93.90
11704;DHT22;5908;51.354;7.458;2024-03-02T02:54:48;9.10;93.90
11704;DHT22;5908;51.354;7.458;2024-03-02T02:57:16;9.10;93.90
11704;DHT22;5908;51.354;7.458;2024-03-02T02:59:43;9.20;93.80
11704;DHT22;5908;51.354;7.458;2024-03-02T03:02:09;9.10;93.60
11704;DHT22;5908;51.354;7.458;2024-03-02T03:04:36;9.10;93.70
11704;DHT22;5908;51.354;7.458;2024-03-02T03:07:03;9.00;93.80
11704;DHT22;5908;51.354;7.458;2024-03-02T03:09:29;9.00;93.80
11704;DHT22;5908;51.354;7.458;2024-03-02T03:11:56;9.00;93.70
11704;DHT22;5908;51.354;7.458;2024-03-02T03:14:24;9.10;93.70
11704;DHT22;5908;51.354;7.458;2024-03-02T03:16:50;9.10;93.70
11704;DHT22;5908;51.354;7.458;2024-03-02T03:19:17;9.10;93.60
11704;DHT22;5908;51.354;7.458;2024-03-02T03:21:43;9.10;93.70
11704;DHT22;5908;51.354;7.458;2024-03-02T03:24:10;9.20;93.70
11704;DHT22;5908;51.354;7.458;2024-03-02T03:26:36;9.10;93.60
11704;DHT22;5908;51.354;7.458;2024-03-02T03:29:03;9.10;93.50
11704;DHT22;5908;51.354;7.458;2024-03-02T03:31:31;9.10;93.60
11704;DHT22;5908;51.354;7.458;2024-03-02T03:33:58;9.10;93.50
11704;DHT22;5908;51.354;7.458;2024-03-02T03:36:24;9.10;93.60
11704;DHT22;5908;51.354;7.458;2024-03-02T03:38:51;9.10;93.50
11704;DHT22;5908;51.354;7.458;2024-03-02T03:41:17;9.10;93.50
11704;DHT22;5908;51.354;7.458;2024-03-02T03:43:44;9.10;93.50
11704;DHT22;5908;51.354;7.458;2024-03-02T03:46:10;9.10;93.40
11704;DHT22;5908;51.354;7.458;2024-03-02T03:48:38;9.20;93.40
11704;DHT22;5908;51.354;7.458;2024-03-02T03:51:05;9.20;93.40
11704;DHT22;5908;51.354;7.458;2024-03-02T03:53:32;9.20;93.20
11704;DHT22;5908;51.354;7.458;2024-03-02T03:55:58;9.30;93.20
11704;DHT22;5908;51.354;7.458;2024-03-02T03:58:25;9.30;93.10
11704;DHT22;5908;51.354;7.458;2024-03-02T04:00:52;9.40;93.10
11704;DHT22;5908;51.354;7.458;2024-03-02T04:03:18;9.50;93.10
11704;DHT22;5908;51.354;7.458;2024-03-02T04:05:46;9.60;93.10
11704;DHT22;5908;51.354;7.458;2024-03-02T04:08:13;9.70;92.80
11704;DHT22;5908;51.354;7.458;2024-03-02T04:10:40;9.90;92.40
11704;DHT22;5908;51.354;7.458;2024-03-02T04:13:07;10.00;92.50
11704;DHT22;5908;51.354;7.458;2024-03-02T04:15:35;10.10;91.90
11704;DHT22;5908;51.354;7.458;2024-03-02T04:18:01;10.20;91.80
11704;DHT22;5908;51.354;7.458;2024-03-02T04:20:28;10.20;91.60
11704;DHT22;5908;51.354;7.458;2024-03-02T04:22:57;10.20;91.60
11704;DHT22;5908;51.354;7.458;2024-03-02T04:25:24;10.10;91.60
11704;DHT22;5908;51.354;7.458;2024-03-02T04:27:51;10.10;91.70
11704;DHT22;5908;51.354;7.458;2024-03-02T04:30:17;10.10;91.80
11704;DHT22;5908;51.354;7.458;2024-03-02T04:32:44;10.10;91.70
11704;DHT22;5908;51.354;7.458;2024-03-02T04:35:12;10.20;91.60
11704;DHT22;5908;51.354;7.458;2024-03-02T04:37:39;10.30;91.60
11704;DHT22;5908;51.354;7.458;2024-03-02T04:40:08;10.30;91.50
11704;DHT22;5908;51.354;7.458;2024-03-02T04:42:35;10.40;91.30
11704;DHT22;5908;51.354;7.458;2024-03-02T04:45:03;10.40;91.30
11704;DHT22;5908;51.354;7.458;2024-03-02T04:47:29;10.40;91.30
11704;DHT22;5908;51.354;7.458;2024-03-02T04:49:56;10.50;91.20
11704;DHT22;5908;51.354;7.458;2024-03-02T04:54:50;10.50;99.90
11704;DHT22;5908;51.354;7.458;2024-03-02T04:57:36;10.50;91.50
11704;DHT22;5908;51.354;7.458;2024-03-02T05:00:03;10.40;91.20
11704;DHT22;5908;51.354;7.458;2024-03-02T05:02:32;10.30;91.30
11704;DHT22;5908;51.354;7.458;2024-03-02T05:04:59;10.30;91.50
11704;DHT22;5908;51.354;7.458;2024-03-02T05:07:26;10.20;91.50
11704;DHT22;5908;51.354;7.458;2024-03-02T05:09:52;10.10;91.70
11704;DHT22;5908;51.354;7.458;2024-03-02T05:12:19;10.00;91.70
11704;DHT22;5908;51.354;7.458;2024-03-02T05:15:06;10.00;91.80
11704;DHT22;5908;51.354;7.458;2024-03-02T05:17:33;10.00;92.00
11704;DHT22;5908;51.354;7.458;2024-03-02T05:20:00;9.90;91.70
11704;DHT22;5908;51.354;7.458;2024-03-02T05:22:26;9.90;92.50
11704;DHT22;5908;51.354;7.458;2024-03-02T05:24:53;9.80;92.20
11704;DHT22;5908;51.354;7.458;2024-03-02T05:27:20;9.80;92.20
11704;DHT22;5908;51.354;7.458;2024-03-02T05:29:47;9.80;92.20
11704;DHT22;5908;51.354;7.458;2024-03-02T05:32:15;9.80;92.30
11704;DHT22;5908;51.354;7.458;2024-03-02T05:34:42;9.70;92.30
11704;DHT22;5908;51.354;7.458;2024-03-02T05:37:08;9.70;92.30
11704;DHT22;5908;51.354;7.458;2024-03-02T05:39:35;9.70;92.40
11704;DHT22;5908;51.354;7.458;2024-03-02T05:42:02;9.70;92.50
11704;DHT22;5908;51.354;7.458;2024-03-02T05:44:29;9.60;92.50
11704;DHT22;5908;51.354;7.458;2024-03-02T05:46:56;9.60;92.50
11704;DHT22;5908;51.354;7.458;2024-03-02T05:49:24;9.60;92.60
11704;DHT22;5908;51.354;7.458;2024-03-02T05:51:51;9.60;92.60
11704;DHT22;5908;51.354;7.458;2024-03-02T05:54:17;9.50;92.70
11704;DHT22;5908;51.354;7.458;2024-03-02T05:56:44;9.50;92.70
11704;DHT22;5908;51.354;7.458;2024-03-02T05:59:11;9.50;92.80
11704;DHT22;5908;51.354;7.458;2024-03-02T06:01:38;9.50;92.90
11704;DHT22;5908;51.354;7.458;2024-03-02T06:04:05;9.50;92.80
11704;DHT22;5908;51.354;7.458;2024-03-02T06:06:33;9.50;92.90
11704;DHT22;5908;51.354;7.458;2024-03-02T06:09:00;9.40;92.90
11704;DHT22;5908;51.354;7.458;2024-03-02T06:11:26;9.50;93.00
11704;DHT22;5908;51.354;7.458;2024-03-02T06:13:53;9.50;93.10
11704;DHT22;5908;51.354;7.458;2024-03-02T06:16:20;9.50;93.00
11704;DHT22;5908;51.354;7.458;2024-03-02T06:18:46;9.50;93.00
11704;DHT22;5908;51.354;7.458;2024-03-02T06:21:13;9.50;93.00
11704;DHT22;5908;51.354;7.458;2024-03-02T06:23:41;9.50;93.00
11704;DHT22;5908;51.354;7.458;2024-03-02T06:26:08;9.50;93.00
11704;DHT22;5908;51.354;7.458;2024-03-02T06:28:34;9.50;93.00
11704;DHT22;5908;51.354;7.458;2024-03-02T06:31:02;9.50;93.00
11704;DHT22;5908;51.354;7.458;2024-03-02T06:33:28;9.50;93.00
11704;DHT22;5908;51.354;7.458;2024-03-02T06:35:54;9.50;93.00
11704;DHT22;5908;51.354;7.458;2024-03-02T06:38:21;9.50;93.00
11704;DHT22;5908;51.354;7.458;2024-03-02T06:40:49;9.20;93.30
11704;DHT22;5908;51.354;7.458;2024-03-02T06:43:16;9.30;93.30
11704;DHT22;5908;51.354;7.458;2024-03-02T06:45:42;9.50;93.10
11704;DHT22;5908;51.354;7.458;2024-03-02T06:48:09;9.60;92.90
11704;DHT22;5908;51.354;7.458;2024-03-02T06:50:36;9.70;92.80
11704;DHT22;5908;51.354;7.458;2024-03-02T06:53:03;9.70;92.70
11704;DHT22;5908;51.354;7.458;2024-03-02T06:55:30;9.90;92.50
11704;DHT22;5908;51.354;7.458;2024-03-02T06:57:58;9.90;92.50
11704;DHT22;5908;51.354;7.458;2024-03-02T07:00:25;9.90;92.30
11704;DHT22;5908;51.354;7.458;2024-03-02T07:02:52;9.90;92.40
11704;DHT22;5908;51.354;7.458;2024-03-02T07:05:18;9.90;92.40
11704;DHT22;5908;51.354;7.458;2024-03-02T07:07:46;10.00;92.30
11704;DHT22;5908;51.354;7.458;2024-03-02T07:10:13;10.00;92.40
11704;DHT22;5908;51.354;7.458;2024-03-02T07:12:39;10.00;92.30
11704;DHT22;5908;51.354;7.458;2024-03-02T07:15:09;10.00;92.30
11704;DHT22;5908;51.354;7.458;2024-03-02T07:17:54;10.10;92.20
11704;DHT22;5908;51.354;7.458;2024-03-02T07:20:21;10.20;92.10
11704;DHT22;5908;51.354;7.458;2024-03-02T07:22:48;10.20;92.10
11704;DHT22;5908;51.354;7.458;2024-03-02T07:25:15;10.20;92.00
11704;DHT22;5908;51.354;7.458;2024-03-02T07:27:41;10.40;91.90
11704;DHT22;5908;51.354;7.458;2024-03-02T07:30:13;10.30;91.80
11704;DHT22;5908;51.354;7.458;2024-03-02T07:32:41;10.40;91.80
11704;DHT22;5908;51.354;7.458;2024-03-02T07:35:11;10.50;91.80
11704;DHT22;5908;51.354;7.458;2024-03-02T07:37:38;10.50;91.80
11704;DHT22;5908;51.354;7.458;2024-03-02T07:40:05;10.50;91.70
11704;DHT22;5908;51.354;7.458;2024-03-02T07:42:34;10.60;91.60
11704;DHT22;5908;51.354;7.458;2024-03-02T07:45:01;10.60;91.50
11704;DHT22;5908;51.354;7.458;2024-03-02T07:47:29;10.70;91.50
11704;DHT22;5908;51.354;7.458;2024-03-02T07:49:56;10.70;91.30
11704;DHT22;5908;51.354;7.458;2024-03-02T07:52:23;10.70;91.40
11704;DHT22;5908;51.354;7.458;2024-03-02T07:54:49;10.80;91.30
11704;DHT22;5908;51.354;7.458;2024-03-02T07:57:16;10.90;91.00
11704;DHT22;5908;51.354;7.458;2024-03-02T07:59:43;10.90;91.00
11704;DHT22;5908;51.354;7.458;2024-03-02T08:02:10;11.00;91.00
11704;DHT22;5908;51.354;7.458;2024-03-02T08:04:39;11.00;90.80
11704;DHT22;5908;51.354;7.458;2024-03-02T08:07:06;11.10;90.80
11704;DHT22;5908;51.354;7.458;2024-03-02T08:09:34;11.20;90.60
11704;DHT22;5908;51.354;7.458;2024-03-02T08:12:00;11.20;90.60
11704;DHT22;5908;51.354;7.458;2024-03-02T08:14:27;11.30;90.50
11704;DHT22;5908;51.354;7.458;2024-03-02T08:16:54;11.30;90.40
11704;DHT22;5908;51.354;7.458;2024-03-02T08:19:22;11.40;90.30
11704;DHT22;5908;51.354;7.458;2024-03-02T08:21:50;11.40;90.30
11704;DHT22;5908;51.354;7.458;2024-03-02T08:24:18;11.40;90.20
11704;DHT22;5908;51.354;7.458;2024-03-02T08:26:44;11.50;90.20
11704;DHT22;5908;51.354;7.458;2024-03-02T08:29:11;11.60;90.00
11704;DHT22;5908;51.354;7.458;2024-03-02T08:31:38;11.70;90.00
11704;DHT22;5908;51.354;7.458;2024-03-02T08:34:05;11.70;89.70
11704;DHT22;5908;51.354;7.458;2024-03-02T08:36:31;11.80;89.40
11704;DHT22;5908;51.354;7.458;2024-03-02T08:38:59;11.80;89.20
11704;DHT22;5908;51.354;7.458;2024-03-02T08:41:27;11.90;88.80
11704;DHT22;5908;51.354;7.458;2024-03-02T08:43:54;12.00;88.80
11704;DHT22;5908;51.354;7.458;2024-03-02T08:46:20;12.20;88.40
11704;DHT22;5908;51.354;7.458;2024-03-02T08:51:14;12.40;87.00
11704;DHT22;5908;51.354;7.458;2024-03-02T08:53:41;12.50;87.30
11704;DHT22;5908;51.354;7.458;2024-03-02T08:56:10;12.50;87.50
11704;DHT22;5908;51.354;7.458;2024-03-02T08:58:38;12.50;87.30
11704;DHT22;5908;51.354;7.458;2024-03-02T09:01:05;12.60;87.00
11704;DHT22;5908;51.354;7.458;2024-03-02T09:03:33;12.70;86.80
11704;DHT22;5908;51.354;7.458;2024-03-02T09:06:00;12.80;86.80
11704;DHT22;5908;51.354;7.458;2024-03-02T09:08:27;12.80;86.60
11704;DHT22;5908;51.354;7.458;2024-03-02T09:10:54;12.90;86.40
11704;DHT22;5908;51.354;7.458;2024-03-02T09:13:22;12.90;86.30
11704;DHT22;5908;51.354;7.458;2024-03-02T09:15:49;12.90;86.00
11704;DHT22;5908;51.354;7.458;2024-03-02T09:18:16;12.90;86.20
11704;DHT22;5908;51.354;7.458;2024-03-02T09:20:43;13.10;85.60
11704;DHT22;5908;51.354;7.458;2024-03-02T09:23:09;13.20;85.50
11704;DHT22;5908;51.354;7.458;2024-03-02T09:25:36;13.30;85.30
11704;DHT22;5908;51.354;7.458;2024-03-02T09:28:03;13.20;85.50
11704;DHT22;5908;51.354;7.458;2024-03-02T09:30:31;13.20;85.30
11704;DHT22;5908;51.354;7.458;2024-03-02T09:32:58;13.20;85.30
11704;DHT22;5908;51.354;7.458;2024-03-02T09:35:25;13.20;85.20
11704;DHT22;5908;51.354;7.458;2024-03-02T09:37:52;13.20;85.40
11704;DHT22;5908;51.354;7.458;2024-03-02T09:40:21;13.10;85.30
11704;DHT22;5908;51.354;7.458;2024-03-02T09:42:48;13.20;85.50
11704;DHT22;5908;51.354;7.458;2024-03-02T09:45:22;13.40;84.90
11704;DHT22;5908;51.354;7.458;2024-03-02T09:47:50;13.40;84.60
11704;DHT22;5908;51.354;7.458;2024-03-02T09:50:17;13.50;84.30
11704;DHT22;5908;51.354;7.458;2024-03-02T09:52:48;13.50;84.30
11704;DHT22;5908;51.354;7.458;2024-03-02T09:55:15;13.50;84.40
11704;DHT22;5908;51.354;7.458;2024-03-02T09:57:42;13.50;84.50
11704;DHT22;5908;51.354;7.458;2024-03-02T10:00:10;13.50;84.60
11704;DHT22;5908;51.354;7.458;2024-03-02T10:02:40;13.60;84.30
11704;DHT22;5908;51.354;7.458;2024-03-02T10:05:08;13.60;84.10
11704;DHT22;5908;51.354;7.458;2024-03-02T10:07:35;13.70;84.00
11704;DHT22;5908;51.354;7.458;2024-03-02T10:10:13;13.80;84.00
11704;DHT22;5908;51.354;7.458;2024-03-02T10:12:39;13.90;83.80
11704;DHT22;5908;51.354;7.458;2024-03-02T10:15:07;13.90;82.80
11704;DHT22;5908;51.354;7.458;2024-03-02T10:17:35;13.80;83.20
11704;DHT22;5908;51.354;7.458;2024-03-02T10:20:24;13.80;83.10
11704;DHT22;5908;51.354;7.458;2024-03-02T10:22:51;13.80;82.90
11704;DHT22;5908;51.354;7.458;2024-03-02T10:25:31;13.90;83.00
11704;DHT22;5908;51.354;7.458;2024-03-02T10:27:58;14.00;82.70
11704;DHT22;5908;51.354;7.458;2024-03-02T10:30:26;14.10;82.40
11704;DHT22;5908;51.354;7.458;2024-03-02T10:32:53;14.20;83.20
11704;DHT22;5908;51.354;7.458;2024-03-02T10:35:23;14.20;96.70
11704;DHT22;5908;51.354;7.458;2024-03-02T10:37:52;14.20;82.00
11704;DHT22;5908;51.354;7.458;2024-03-02T10:40:21;14.30;81.30
11704;DHT22;5908;51.354;7.458;2024-03-02T10:42:49;14.40;81.60
11704;DHT22;5908;51.354;7.458;2024-03-02T10:45:16;14.50;81.30
11704;DHT22;5908;51.354;7.458;2024-03-02T10:47:47;14.40;81.70
11704;DHT22;5908;51.354;7.458;2024-03-02T10:50:14;14.50;80.80
11704;DHT22;5908;51.354;7.458;2024-03-02T10:52:42;14.50;79.90
11704;DHT22;5908;51.354;7.458;2024-03-02T10:55:09;14.60;79.70
11704;DHT22;5908;51.354;7.458;2024-03-02T10:57:42;14.70;80.20
11704;DHT22;5908;51.354;7.458;2024-03-02T11:00:13;14.70;79.10
11704;DHT22;5908;51.354;7.458;2024-03-02T11:02:49;14.70;79.80
11704;DHT22;5908;51.354;7.458;2024-03-02T11:05:26;14.70;79.20
11704;DHT22;5908;51.354;7.458;2024-03-02T11:07:57;14.60;79.60
11704;DHT22;5908;51.354;7.458;2024-03-02T11:10:25;14.50;79.20
11704;DHT22;5908;51.354;7.458;2024-03-02T11:13:01;14.50;79.50
11704;DHT22;5908;51.354;7.458;2024-03-02T11:15:30;14.60;79.20
11704;DHT22;5908;51.354;7.458;2024-03-02T11:17:57;14.50;79.60
11704;DHT22;5908;51.354;7.458;2024-03-02T11:20:24;14.70;79.90
11704;DHT22;5908;51.354;7.458;2024-03-02T11:22:52;14.80;79.60
11704;DHT22;5908;51.354;7.458;2024-03-02T11:25:27;15.00;79.60
11704;DHT22;5908;51.354;7.458;2024-03-02T11:28:02;15.10;78.90
11704;DHT22;5908;51.354;7.458;2024-03-02T11:30:50;15.20;78.60
11704;DHT22;5908;51.354;7.458;2024-03-02T11:33:24;15.20;78.90
11704;DHT22;5908;51.354;7.458;2024-03-02T11:35:52;14.80;80.20
11704;DHT22;5908;51.354;7.458;2024-03-02T11:43:15;14.60;80.30
11704;DHT22;5908;51.354;7.458;2024-03-02T11:45:43;14.50;81.70
11704;DHT22;5908;51.354;7.458;2024-03-02T11:48:14;14.50;81.60
11704;DHT22;5908;51.354;7.458;2024-03-02T11:50:42;14.50;81.40
11704;DHT22;5908;51.354;7.458;2024-03-02T11:53:12;14.60;81.40
11704;DHT22;5908;51.354;7.458;2024-03-02T11:55:40;14.50;82.10
11704;DHT22;5908;51.354;7.458;2024-03-02T11:58:10;14.50;82.30
11704;DHT22;5908;51.354;7.458;2024-03-02T12:00:37;14.50;82.20
11704;DHT22;5908;51.354;7.458;2024-03-02T12:03:06;14.50;82.70
11704;DHT22;5908;51.354;7.458;2024-03-02T12:05:34;14.60;82.30
11704;DHT22;5908;51.354;7.458;2024-03-02T12:08:03;14.70;82.40
11704;DHT22;5908;51.354;7.458;2024-03-02T12:10:30;14.70;82.80
11704;DHT22;5908;51.354;7.458;2024-03-02T12:12:58;14.60;82.50
11704;DHT22;5908;51.354;7.458;2024-03-02T12:15:28;14.60;82.70
11704;DHT22;5908;51.354;7.458;2024-03-02T12:17:55;14.60;82.70
11704;DHT22;5908;51.354;7.458;2024-03-02T12:20:22;14.60;82.40
11704;DHT22;5908;51.354;7.458;2024-03-02T12:22:51;14.50;82.70
11704;DHT22;5908;51.354;7.458;2024-03-02T12:25:19;14.50;82.40
11704;DHT22;5908;51.354;7.458;2024-03-02T12:27:47;14.50;82.10
11704;DHT22;5908;51.354;7.458;2024-03-02T12:30:14;14.70;82.70
11704;DHT22;5908;51.354;7.458;2024-03-02T12:32:42;14.70;83.10
11704;DHT22;5908;51.354;7.458;2024-03-02T12:35:10;14.80;82.50
11704;DHT22;5908;51.354;7.458;2024-03-02T12:37:44;15.10;93.80
11704;DHT22;5908;51.354;7.458;2024-03-02T12:40:11;15.20;94.20
11704;DHT22;5908;51.354;7.458;2024-03-02T12:42:38;15.20;79.00
11704;DHT22;5908;51.354;7.458;2024-03-02T12:45:06;15.30;79.20
11704;DHT22;5908;51.354;7.458;2024-03-02T12:47:33;15.40;79.60
11704;DHT22;5908;51.354;7.458;2024-03-02T12:50:02;15.40;78.80
11704;DHT22;5908;51.354;7.458;2024-03-02T12:52:30;15.40;78.60
11704;DHT22;5908;51.354;7.458;2024-03-02T12:54:58;15.40;78.60
11704;DHT22;5908;51.354;7.458;2024-03-02T12:57:26;15.40;78.90
11704;DHT22;5908;51.354;7.458;2024-03-02T12:59:58;15.40;78.50
11704;DHT22;5908;51.354;7.458;2024-03-02T13:02:28;15.40;78.40
11704;DHT22;5908;51.354;7.458;2024-03-02T13:04:55;15.50;78.30
11704;DHT22;5908;51.354;7.458;2024-03-02T13:07:24;15.40;77.40
11704;DHT22;5908;51.354;7.458;2024-03-02T13:09:52;15.50;77.60
11704;DHT22;5908;51.354;7.458;2024-03-02T13:12:21;15.70;77.80
11704;DHT22;5908;51.354;7.458;2024-03-02T13:14:49;15.80;77.20
11704;DHT22;5908;51.354;7.458;2024-03-02T13:17:17;15.80;76.30
11704;DHT22;5908;51.354;7.458;2024-03-02T13:19:52;16.00;76.60
11704;DHT22;5908;51.354;7.458;2024-03-02T13:22:19;16.10;76.10
11704;DHT22;5908;51.354;7.458;2024-03-02T13:24:48;16.30;76.00
11704;DHT22;5908;51.354;7.458;2024-03-02T13:29:45;16.70;73.90
11704;DHT22;5908;51.354;7.458;2024-03-02T13:32:11;16.90;74.70
11704;DHT22;5908;51.354;7.458;2024-03-02T13:34:38;16.90;73.80
11704;DHT22;5908;51.354;7.458;2024-03-02T13:37:05;17.00;73.40
11704;DHT22;5908;51.354;7.458;2024-03-02T13:39:31;16.90;72.10
11704;DHT22;5908;51.354;7.458;2024-03-02T13:42:06;16.90;72.40
11704;DHT22;5908;51.354;7.458;2024-03-02T13:44:34;16.60;72.10
11704;DHT22;5908;51.354;7.458;2024-03-02T13:47:01;16.60;72.00
11704;DHT22;5908;51.354;7.458;2024-03-02T13:49:27;16.60;72.20
11704;DHT22;5908;51.354;7.458;2024-03-02T13:51:59;16.60;72.40
11704;DHT22;5908;51.354;7.458;2024-03-02T13:54:29;16.70;72.10
11704;DHT22;5908;51.354;7.458;2024-03-02T13:56:57;16.70;72.00
11704;DHT22;5908;51.354;7.458;2024-03-02T13:59:26;16.60;72.70
11704;DHT22;5908;51.354;7.458;2024-03-02T14:01:53;16.60;73.20
11704;DHT22;5908;51.354;7.458;2024-03-02T14:04:20;16.70;72.60
11704;DHT22;5908;51.354;7.458;2024-03-02T14:06:46;16.90;72.80
11704;DHT22;5908;51.354;7.458;2024-03-02T14:09:13;17.10;72.40
11704;DHT22;5908;51.354;7.458;2024-03-02T14:11:40;17.00;72.40
11704;DHT22;5908;51.354;7.458;2024-03-02T14:14:07;16.70;72.50
11704;DHT22;5908;51.354;7.458;2024-03-02T14:16:35;16.50;74.20
11704;DHT22;5908;51.354;7.458;2024-03-02T14:19:02;16.30;74.60
11704;DHT22;5908;51.354;7.458;2024-03-02T14:21:30;16.30;74.50
11704;DHT22;5908;51.354;7.458;2024-03-02T14:23:57;16.20;75.40
11704;DHT22;5908;51.354;7.458;2024-03-02T14:26:23;16.10;75.80
11704;DHT22;5908;51.354;7.458;2024-03-02T14:28:50;16.00;76.40
11704;DHT22;5908;51.354;7.458;2024-03-02T14:31:17;16.30;76.10
11704;DHT22;5908;51.354;7.458;2024-03-02T14:33:46;16.40;75.30
11704;DHT22;5908;51.354;7.458;2024-03-02T14:36:13;16.30;75.50
11704;DHT22;5908;51.354;7.458;2024-03-02T14:38:40;16.30;75.90
11704;DHT22;5908;51.354;7.458;2024-03-02T14:41:07;16.20;76.00
11704;DHT22;5908;51.354;7.458;2024-03-02T14:43:33;16.00;76.50
11704;DHT22;5908;51.354;7.458;2024-03-02T14:46:01;16.20;76.60
11704;DHT22;5908;51.354;7.458;2024-03-02T14:48:28;16.10;76.40
11704;DHT22;5908;51.354;7.458;2024-03-02T14:50:57;16.10;76.10
11704;DHT22;5908;51.354;7.458;2024-03-02T14:53:23;16.20;75.50
11704;DHT22;5908;51.354;7.458;2024-03-02T14:55:50;16.00;75.40
11704;DHT22;5908;51.354;7.458;2024-03-02T14:58:17;15.90;75.50
11704;DHT22;5908;51.354;7.458;2024-03-02T15:00:45;15.80;75.70
11704;DHT22;5908;51.354;7.458;2024-03-02T15:03:12;15.70;75.70
11704;DHT22;5908;51.354;7.458;2024-03-02T15:05:39;15.80;76.10
11704;DHT22;5908;51.354;7.458;2024-03-02T15:08:07;15.80;74.70
11704;DHT22;5908;51.354;7.458;2024-03-02T15:10:34;15.80;75.30
11704;DHT22;5908;51.354;7.458;2024-03-02T15:13:01;15.80;75.10
11704;DHT22;5908;51.354;7.458;2024-03-02T15:15:28;16.00;75.00
11704;DHT22;5908;51.354;7.458;2024-03-02T15:17:55;16.10;74.50
11704;DHT22;5908;51.354;7.458;2024-03-02T15:20:22;16.00;74.80
11704;DHT22;5908;51.354;7.458;2024-03-02T15:22:48;16.00;74.70
11704;DHT22;5908;51.354;7.458;2024-03-02T15:25:16;16.00;75.50
11704;DHT22;5908;51.354;7.458;2024-03-02T15:27:43;16.00;75.50
11704;DHT22;5908;51.354;7.458;2024-03-02T15:30:10;16.20;75.70
11704;DHT22;5908;51.354;7.458;2024-03-02T15:32:37;16.00;75.30
11704;DHT22;5908;51.354;7.458;2024-03-02T15:35:10;16.20;75.80
11704;DHT22;5908;51.354;7.458;2024-03-02T15:37:38;16.30;75.10
11704;DHT22;5908;51.354;7.458;2024-03-02T15:40:08;16.10;75.80
11704;DHT22;5908;51.354;7.458;2024-03-02T15:42:36;16.00;75.30
11704;DHT22;5908;51.354;7.458;2024-03-02T15:45:03;15.80;76.30
11704;DHT22;5908;51.354;7.458;2024-03-02T15:47:31;15.80;76.60
11704;DHT22;5908;51.354;7.458;2024-03-02T15:49:57;15.80;75.60
11704;DHT22;5908;51.354;7.458;2024-03-02T15:52:24;15.80;75.90
11704;DHT22;5908;51.354;7.458;2024-03-02T15:54:51;15.70;75.80
11704;DHT22;5908;51.354;7.458;2024-03-02T15:57:18;15.40;76.30
11704;DHT22;5908;51.354;7.458;2024-03-02T15:59:47;15.30;76.40
11704;DHT22;5908;51.354;7.458;2024-03-02T16:02:13;15.40;77.10
11704;DHT22;5908;51.354;7.458;2024-03-02T16:04:40;15.50;76.70
11704;DHT22;5908;51.354;7.458;2024-03-02T16:07:07;15.50;76.10